Flight Track Log - Related Links

Times and Time Zones

All times are in EDT time to prevent confusion due to time zone crossing. See the JBU1433 flight status page for this flight to view local times or setup timezone preferences in your user account.

Time Position Orientation Groundspeed Altitude Reporting Facility
EDT Latitude Longitude Course Direction KTS MPH feet Rate Location/Type
Mon 10:59:31 PM 28.4167 -81.3167 149° Southeast 163 188 500  Level Orlando TRACON
Mon 11:00:18 PM 28.4000 -81.3000 139° Southeast 180 207 1,900 1,611 Climbing Orlando TRACON
Mon 11:01:19 PM 28.3500 -81.2333 130° Southeast 269 310 3,400 2,281 Climbing Orlando TRACON
Mon 11:02:00 PM 27.4976 -79.6561 144° Southeast  Level Estimated
Mon 11:02:19 PM 28.3333 -81.1667 106° East 280 322 6,500  Level Orlando TRACON
Mon 11:03:00 PM 27.4422 -79.5598 149° Southeast  Level Estimated
Mon 11:03:29 PM 28.2869 -81.0650 117° Southeast 301 346 9,700  Level Miami Center
Mon 11:04:00 PM 27.3867 -79.4635 149° Southeast  Level Estimated
Mon 11:04:29 PM 28.2539 -80.9811 114° Southeast 301 346 11,100  Level Miami Center
Mon 11:05:29 PM 28.1983 -80.8850 123° Southeast 342 394 13,000 2,136 Climbing Miami Center
Mon 11:06:27 PM 28.1386 -80.7839 124° Southeast 374 430 15,300 2,168 Climbing Miami Center
Mon 11:07:28 PM 28.0806 -80.6831 123° Southeast 384 442 17,300 1,800 Climbing Miami Center
Mon 11:08:27 PM 28.0086 -80.5631 124° Southeast 397 457 18,900 1,686 Climbing Miami Center
Mon 11:09:29 PM 27.9467 -80.4553 123° Southeast 405 466 20,700 1,686 Climbing Miami Center
Mon 11:10:28 PM 27.8825 -80.3475 124° Southeast 405 466 22,300 1,400 Climbing Miami Center
Mon 11:11:29 PM 27.8122 -80.2306 124° Southeast 432 497 23,500 1,261 Climbing Miami Center
Mon 11:12:27 PM 27.7439 -80.1158 124° Southeast 438 504 24,800 1,261 Climbing Miami Center
Mon 11:13:28 PM 27.6736 -79.9989 124° Southeast 444 511 26,000 1,082 Climbing Miami Center
Mon 11:14:29 PM 27.6028 -79.8822 124° Southeast 449 517 27,000 1,008 Climbing Miami Center
Mon 11:15:27 PM 27.5344 -79.7608 122° Southeast 451 519 28,000 1,008 Climbing Miami Center
Mon 11:16:28 PM 27.4697 -79.6517 124° Southeast 466 536 29,000 942 Climbing Miami Center
Mon 11:17:28 PM 27.3947 -79.5281 124° Southeast 475 547 29,900 1,091 Climbing Miami Center
Mon 11:18:29 PM 27.3136 -79.3931 124° Southeast 475 547 31,200 1,140 Climbing Miami Center
Mon 11:19:29 PM 27.2364 -79.2675 125° Southeast 475 547 32,200 1,059 Climbing Miami Center
Mon 11:20:28 PM 27.1653 -79.1469 124° Southeast 470 541 33,300 1,109 Climbing Miami Center
Mon 11:21:28 PM 27.0961 -79.0358 125° Southeast 476 548 34,400 1,008 Climbing Miami Center
Mon 11:22:27 PM 27.0164 -78.9039 124° Southeast 476 548 35,300 958 Climbing Miami Center
Mon 11:23:27 PM 26.9408 -78.7814 125° Southeast 471 542 36,300 850 Climbing Miami Center
Mon 11:24:27 PM 26.8608 -78.6636 127° Southeast 476 548 37,000 344 Climbing Miami Center
Mon 11:25:29 PM 26.7975 -78.5603 124° Southeast 464 534 37,000  Level Miami Center
Mon 11:26:28 PM 26.7278 -78.4314 121° Southeast 464 534 37,000 -50 Level Miami Center
Mon 11:27:29 PM 26.6581 -78.3117 123° Southeast 469 540 36,900 -50 Descending Miami Center
Mon 11:28:29 PM 26.5861 -78.1947 125° Southeast 469 540 36,900 51 Level Miami Center
Mon 11:29:27 PM 26.5036 -78.0731 127° Southeast 469 540 37,000 51 Climbing Miami Center
Mon 11:30:27 PM 26.4356 -77.9494 122° Southeast 469 540 37,000  Level Miami Center
Mon 11:31:27 PM 26.3633 -77.8350 125° Southeast 464 534 37,000  Level Miami Center
Mon 11:32:28 PM 26.2931 -77.7164 123° Southeast 464 534 37,000  Level Miami Center
Mon 11:33:27 PM 26.2183 -77.5931 124° Southeast 469 540 37,000  Level Miami Center
Mon 11:34:27 PM 26.1478 -77.4767 124° Southeast 469 540 37,000  Level Miami Center
Mon 11:35:27 PM 26.0814 -77.3700 125° Southeast 477 549 37,000  Level Miami Center
Mon 11:36:28 PM 26.0086 -77.2542 125° Southeast 470 541 37,000  Level Miami Center
Mon 11:37:29 PM 25.9358 -77.1336 124° Southeast 470 541 37,000  Level Miami Center
Mon 11:38:29 PM 25.8628 -77.0158 125° Southeast 470 541 37,000  Level Miami Center
Mon 11:39:28 PM 25.7875 -76.8981 125° Southeast 470 541 37,000  Level Miami Center
Mon 11:40:27 PM 25.7167 -76.7803 124° Southeast 465 535 37,000  Level Miami Center
Mon 11:41:28 PM 25.6411 -76.6628 125° Southeast 465 535 37,000  Level Miami Center
Mon 11:42:27 PM 25.5678 -76.5456 125° Southeast 470 541 37,000  Level Miami Center
Mon 11:43:29 PM 25.4944 -76.4281 125° Southeast 470 541 37,000  Level Miami Center
Mon 11:44:27 PM 25.4208 -76.3111 125° Southeast 470 541 37,000  Level Miami Center
Mon 11:45:27 PM 25.3494 -76.1986 125° Southeast 464 534 37,000  Level Miami Center
Mon 11:46:28 PM 25.2756 -76.0842 126° Southeast 459 528 37,000  Level Miami Center
Mon 11:47:29 PM 25.2061 -75.9697 124° Southeast 459 528 37,000  Level Miami Center
Mon 11:48:28 PM 25.1322 -75.8556 126° Southeast 459 528 37,000  Level Miami Center
Mon 11:49:29 PM 25.0581 -75.7417 126° Southeast 459 528 37,000  Level Miami Center
Mon 11:50:29 PM 24.9756 -75.6139 125° Southeast 459 528 37,000  Level Miami Center
Mon 11:51:29 PM 24.9036 -75.5047 126° Southeast 452 520 37,000  Level Miami Center
Mon 11:52:27 PM 24.8314 -75.3886 124° Southeast 457 526 37,000  Level Miami Center
Mon 11:53:27 PM 24.7572 -75.2753 126° Southeast 457 526 37,000  Level Miami Center
Mon 11:54:29 PM 24.6828 -75.1572 125° Southeast 457 526 37,000  Level Miami Center
Mon 11:55:28 PM 24.6103 -75.0486 126° Southeast 457 526 37,000  Level Miami Center
Mon 11:56:28 PM 24.5378 -74.9331 125° Southeast 457 526 37,000  Level Miami Center
Mon 11:57:27 PM 24.4611 -74.8200 127° Southeast 457 526 37,000  Level Miami Center
Mon 11:58:27 PM 24.3906 -74.7117 126° Southeast 452 520 37,000  Level Miami Center
Mon 11:59:27 PM 24.3158 -74.5967 125° Southeast 452 520 37,000  Level Miami Center
Tue 12:00:27 AM 24.2450 -74.4864 125° Southeast 452 520 37,000  Level Miami Center
Tue 12:01:27 AM 24.1700 -74.3739 126° Southeast 452 520 37,000  Level Miami Center
Tue 12:02:28 AM 24.0992 -74.2639 125° Southeast 452 520 37,000  Level Miami Center
Tue 12:03:29 AM 24.0242 -74.1517 126° Southeast 447 514 37,000  Level Miami Center
Tue 12:04:27 AM 23.9511 -74.0419 126° Southeast 447 514 37,000  Level Miami Center
Tue 12:05:27 AM 23.8778 -73.9322 126° Southeast 447 514 37,000  Level Miami Center
Tue 12:06:28 AM 23.8067 -73.8203 125° Southeast 453 521 37,000  Level Miami Center
Tue 12:07:27 AM 23.7333 -73.7086 126° Southeast 448 516 37,000  Level Miami Center
Tue 12:08:29 AM 23.6686 -73.6128 126° Southeast 448 516 37,000  Level Miami Center
Tue 12:09:28 AM 23.5931 -73.5036 127° Southeast 448 516 37,000  Level Miami Center
Tue 12:10:28 AM 23.5217 -73.3922 125° Southeast 448 516 37,000  Level Miami Center
Tue 12:11:28 AM 23.4458 -73.2833 127° Southeast 448 516 37,000  Level Miami Center
Tue 12:12:27 AM 23.3744 -73.1744 126° Southeast 448 516 37,000 -50 Level Miami Center
Tue 12:13:27 AM 23.3028 -73.0681 126° Southeast 448 516 36,900  Descending Miami Center
Tue 12:14:27 AM 23.2269 -72.9619 128° Southeast 443 510 37,000 50 Climbing Miami Center
Tue 12:15:27 AM 23.1531 -72.8533 126° Southeast 443 510 37,000  Level Miami Center
Tue 12:16:29 AM 23.0833 -72.7450 125° Southeast 443 510 37,000  Level Miami Center
Tue 12:17:27 AM 23.0114 -72.6344 125° Southeast 448 516 37,000  Level Miami Center
Tue 12:18:29 AM 22.9353 -72.5264 127° Southeast 448 516 37,000  Level Miami Center
Tue 12:19:26 AM 22.8611 -72.4208 127° Southeast 448 516 37,000  Level Miami Center
Tue 12:20:26 AM 22.7850 -72.3156 128° Southeast 448 516 37,000  Level Miami Center
Tue 12:21:26 AM 22.7106 -72.2033 126° Southeast 448 516 37,000  Level Miami Center
Tue 12:22:26 AM 22.6361 -72.0958 127° Southeast 448 516 37,000  Level Miami Center
Tue 12:23:28 AM 22.5639 -71.9883 126° Southeast 448 516 37,000  Level Miami Center
Tue 12:24:28 AM 22.4828 -71.8700 127° Southeast 448 516 37,000  Level Miami Center
Tue 12:25:28 AM 22.4083 -71.7628 127° Southeast 448 516 37,000  Level Miami Center
Tue 12:26:29 AM 22.3317 -71.6536 127° Southeast 448 516 37,000  Level Miami Center
Tue 12:27:28 AM 22.2589 -71.5444 126° Southeast 448 516 37,000  Level Miami Center
Tue 12:28:29 AM 22.1822 -71.4378 128° Southeast 448 516 37,000  Level Miami Center
Tue 12:29:26 AM 22.1092 -71.3289 126° Southeast 448 516 37,000  Level Miami Center
Tue 12:30:28 AM 22.0344 -71.2200 126° Southeast 448 516 37,000  Level Miami Center
Tue 12:31:29 AM 21.9553 -71.1117 128° Southeast 448 516 37,000  Level Miami Center
Tue 12:32:26 AM 21.8803 -71.0031 127° Southeast 448 516 37,000  Level Miami Center
Tue 12:33:29 AM 21.8050 -70.8947 127° Southeast 448 516 37,000  Level Miami Center
Tue 12:34:26 AM 21.7278 -70.7844 127° Southeast 448 516 37,000  Level Miami Center
Tue 12:35:27 AM 21.6525 -70.6764 127° Southeast 448 516 37,000  Level Miami Center
Tue 12:36:26 AM 21.5772 -70.5706 127° Southeast 448 516 37,000  Level Miami Center
Tue 12:37:27 AM 21.4997 -70.4628 128° Southeast 448 516 37,000  Level Miami Center
Tue 12:38:26 AM 21.4244 -70.3572 127° Southeast 448 516 37,000  Level Miami Center
Tue 12:39:27 AM 21.3489 -70.2497 127° Southeast 448 516 37,000  Level Miami Center
Tue 12:40:28 AM 21.2803 -70.1553 128° Southeast 448 516 37,000  Level Miami Center
Tue 12:41:27 AM 21.2047 -70.0478 127° Southeast 448 516 37,000  Level Miami Center
Tue 12:42:29 AM 21.1311 -69.9406 126° Southeast 448 516 37,000  Level Miami Center
Tue 12:43:29 AM 21.0556 -69.8378 128° Southeast 448 516 37,000  Level Miami Center
Tue 12:44:26 AM 20.9778 -69.7308 128° Southeast 448 516 37,000  Level Miami Center
Tue 12:45:27 AM 20.9019 -69.6217 127° Southeast 448 516 37,000  Level Miami Center
Tue 12:46:26 AM 20.8219 -69.5153 129° Southeast 448 516 37,000  Level Miami Center
Tue 12:47:28 AM 20.7481 -69.4086 127° Southeast 448 516 37,000  Level Miami Center
Tue 12:48:26 AM 20.6700 -69.3019 128° Southeast 448 516 37,000  Level Miami Center
Tue 12:49:27 AM 20.5961 -69.1978 127° Southeast 448 516 37,000  Level Miami Center
Tue 12:50:29 AM 20.5181 -69.0917 128° Southeast 448 516 37,000  Level Miami Center
Tue 12:51:29 AM 20.4436 -68.9811 126° Southeast 448 516 37,000  Level Miami Center
Tue 12:52:29 AM 20.3694 -68.8725 126° Southeast 454 522 37,000  Level Miami Center
Tue 12:53:26 AM 20.2992 -68.7619 124° Southeast 454 522 37,000  Level Miami Center
Tue 12:54:26 AM 20.2289 -68.6514 124° Southeast 459 528 37,000  Level Miami Center
Tue 12:55:28 AM 20.1586 -68.5411 124° Southeast 459 528 37,000  Level Miami Center
Tue 12:56:28 AM 20.0839 -68.4308 126° Southeast 454 522 37,000  Level Miami Center
Tue 12:57:26 AM 20.0136 -68.3231 125° Southeast 454 522 37,000  Level Miami Center
Tue 12:58:26 AM 19.9411 -68.2153 126° Southeast 454 522 37,000  Level Miami Center
Tue 12:59:26 AM 19.8683 -68.1056 125° Southeast 454 522 37,000  Level Miami Center
Tue 01:00:01 AM 19.8167 -68.0333 127° Southeast 450 518 37,000  Level San Juan Center
Tue 01:01:02 AM 19.7500 -67.9333 125° Southeast 440 506 37,000  Level San Juan Center
Tue 01:02:02 AM 19.6667 -67.8167 127° Southeast 450 518 37,000  Level San Juan Center
Tue 01:03:02 AM 19.6000 -67.7000 121° Southeast 440 506 37,000 -694 Level San Juan Center
Tue 01:04:03 AM 19.5333 -67.5833 121° Southeast 450 518 35,600 -1,884 Descending San Juan Center
Tue 01:05:03 AM 19.4500 -67.4833 131° Southeast 450 518 33,200 -2,387 Descending San Juan Center
Tue 01:07:04 AM 19.2833 -67.2667 129° Southeast 460 529 28,400 -2,287 Descending San Juan Center
Tue 01:08:04 AM 19.2333 -67.1667 118° Southeast 430 495 26,300 -2,250 Descending San Juan Center
Tue 01:09:04 AM 19.1667 -67.0500 121° Southeast 430 495 23,900 -2,200 Descending San Juan Center
Tue 01:10:04 AM 19.0833 -66.9500 131° Southeast 420 483 21,900 -1,983 Descending San Juan Center
Tue 01:11:05 AM 19.0167 -66.8500 125° Southeast 400 460 19,900 -1,983 Descending San Juan Center
Tue 01:12:05 AM 18.9500 -66.7667 130° Southeast 380 437 17,900 -2,000 Descending San Juan Center
Tue 01:13:05 AM 18.9000 -66.6833 122° Southeast 370 426 15,900 -1,934 Descending San Juan Center
Tue 01:14:06 AM 18.8333 -66.5833 125° Southeast 370 426 14,000 -1,884 Descending San Juan Center
Tue 01:15:06 AM 18.7833 -66.5000 122° Southeast 350 403 12,100 -1,700 Descending San Juan Center
Tue 01:16:06 AM 18.7167 -66.4167 130° Southeast 340 391 10,600 -1,140 Descending San Juan Center
Tue 01:17:07 AM 18.6833 -66.3500 118° Southeast 290 334 9,800 -1,190 Descending San Juan Center
Tue 01:18:07 AM 18.6167 -66.2833 137° Southeast 290 334 8,200 -1,800 Descending San Juan Center
Tue 01:19:07 AM 18.5500 -66.2500 155° Southeast 270 311 6,200 -2,331 Descending San Juan Center
Tue 01:20:08 AM 18.4667 -66.2333 169° South 270 311 3,500 -1,835 Descending San Juan Center
Tue 01:21:08 AM 18.4000 -66.2167 167° South 250 288 2,500 -500 Descending San Juan Center
Tue 01:22:08 AM 18.3833 -66.1500 105° East 210 242 2,500 -198 Level San Juan Center
Tue 01:23:09 AM 18.3833 -66.1000 90° East 180 207 2,100 -645 Descending San Juan Center
Tue 01:24:09 AM 18.4000 -66.0667 62° Northeast 150 173 1,200 -750 Descending San Juan Center
Tue 01:25:09 AM 18.4167 -66.0333 62° Northeast 140 161 600 -600 Descending San Juan Center

Login

Don't have an account? Register now (free) for customized features, flight alerts, and more!